createdAt,value
2022-09-01T00:00:55.678Z,80.93
2022-09-01T00:01:58.448Z,80.66
2022-09-01T00:03:01.440Z,80.00
2022-09-01T00:04:04.535Z,80.20
2022-09-01T00:05:08.026Z,80.97
2022-09-01T00:06:11.890Z,80.37
2022-09-01T00:07:15.181Z,80.43
2022-09-01T00:08:21.666Z,80.00
2022-09-01T00:09:24.760Z,80.87
2022-09-01T00:10:27.547Z,80.53
2022-09-01T00:11:31.206Z,79.82
2022-09-01T00:12:34.590Z,78.94
2022-09-01T00:13:37.410Z,79.87
2022-09-01T00:14:41.730Z,79.42
2022-09-01T00:15:44.696Z,80.14
2022-09-01T00:16:47.668Z,80.93
2022-09-01T00:17:54.563Z,81.53
2022-09-01T00:18:58.071Z,81.57
2022-09-01T00:20:01.073Z,81.74
2022-09-01T00:21:04.110Z,80.95
2022-09-01T00:22:08.021Z,81.24
2022-09-01T00:23:12.772Z,81.98
2022-09-01T00:24:18.914Z,81.05
2022-09-01T00:25:23.705Z,81.41
2022-09-01T00:26:26.967Z,81.36
2022-09-01T00:27:31.034Z,82.75
2022-09-01T00:28:35.390Z,82.76
2022-09-01T00:29:38.205Z,83.64
2022-09-01T00:30:46.413Z,84.16
2022-09-01T00:31:49.938Z,83.58
2022-09-01T00:32:52.764Z,82.89
2022-09-01T00:33:55.630Z,84.08
2022-09-01T00:34:58.439Z,84.75
2022-09-01T00:36:02.324Z,85.17
2022-09-01T00:37:05.120Z,84.72
2022-09-01T00:38:07.967Z,85.00
2022-09-01T00:39:11.148Z,85.36
2022-09-01T00:40:16.876Z,86.01
2022-09-01T00:41:22.943Z,85.87
2022-09-01T00:42:25.993Z,85.70
2022-09-01T00:43:42.310Z,86.45
2022-09-01T00:44:45.193Z,87.59
2022-09-01T00:45:52.373Z,87.99
2022-09-01T00:46:57.136Z,87.81
2022-09-01T00:48:00.041Z,87.74
2022-09-01T00:49:16.530Z,88.00
2022-09-01T00:50:19.888Z,87.34
2022-09-01T00:51:23.075Z,86.62
2022-09-01T00:52:34.526Z,86.79
2022-09-01T00:53:40.049Z,87.32
2022-09-01T00:54:46.866Z,88.16
2022-09-01T00:55:49.763Z,88.50
2022-09-01T00:56:57.888Z,88.43
2022-09-01T00:58:03.599Z,88.30
2022-09-01T00:59:09.722Z,88.27
2022-09-01T01:00:22.197Z,87.72
2022-09-01T01:01:25.193Z,87.99
2022-09-01T01:02:28.395Z,88.32
2022-09-01T01:03:31.344Z,87.90
2022-09-01T01:04:34.089Z,88.71
2022-09-01T01:05:41.659Z,89.48
2022-09-01T01:06:50.098Z,89.78
2022-09-01T01:07:53.034Z,90.34
2022-09-01T01:09:00.951Z,90.33
2022-09-01T01:10:04.280Z,90.03
2022-09-01T01:11:22.280Z,89.67
2022-09-01T01:12:28.245Z,89.80
2022-09-01T01:13:36.498Z,89.60
2022-09-01T01:14:40.317Z,90.32
2022-09-01T01:15:44.390Z,89.64
2022-09-01T01:16:52.556Z,89.60
2022-09-01T01:17:56.247Z,88.97
2022-09-01T01:18:59.138Z,88.06
2022-09-01T01:20:21.404Z,87.70
2022-09-01T01:21:54.872Z,87.97
2022-09-01T01:23:11.449Z,88.49
2022-09-01T01:24:35.053Z,88.62
2022-09-01T01:25:46.624Z,87.98
2022-09-01T01:26:49.637Z,86.74
2022-09-01T01:27:52.444Z,86.85
2022-09-01T01:28:55.704Z,87.28
2022-09-01T01:30:01.526Z,87.27
2022-09-01T01:31:18.617Z,86.84
2022-09-01T01:32:23.888Z,87.04
2022-09-01T01:33:31.661Z,87.90
2022-09-01T01:34:34.673Z,87.40
2022-09-01T01:35:37.814Z,87.35
2022-09-01T01:36:41.822Z,87.22
2022-09-01T01:37:46.785Z,87.72
2022-09-01T01:38:50.558Z,87.51
2022-09-01T01:39:53.453Z,88.03
2022-09-01T01:40:56.478Z,88.27
2022-09-01T01:41:59.374Z,88.50
2022-09-01T01:43:02.303Z,88.62
2022-09-01T01:44:06.132Z,88.34
2022-09-01T01:45:12.875Z,88.87
2022-09-01T01:46:19.378Z,89.09
2022-09-01T01:47:23.856Z,88.45
2022-09-01T01:48:28.566Z,88.12
2022-09-01T01:49:32.045Z,88.08
2022-09-01T01:50:36.040Z,88.33
2022-09-01T01:51:39.533Z,87.84
2022-09-01T01:52:45.552Z,86.87
2022-09-01T01:53:53.079Z,86.65
2022-09-01T01:54:56.403Z,87.43
2022-09-01T01:56:01.179Z,87.56
2022-09-01T01:57:08.372Z,87.98
2022-09-01T01:58:12.500Z,88.00
2022-09-01T01:59:19.752Z,87.41
2022-09-01T02:00:30.257Z,87.35
2022-09-01T02:01:34.034Z,87.74
2022-09-01T02:02:38.593Z,87.56
2022-09-01T02:03:41.512Z,87.53
2022-09-01T02:04:44.359Z,87.64
2022-09-01T02:05:49.160Z,88.16
2022-09-01T02:06:52.339Z,88.21
2022-09-01T02:08:00.315Z,88.45
2022-09-01T02:09:04.267Z,89.00
2022-09-01T02:10:07.314Z,88.56
2022-09-01T02:11:10.266Z,88.64
2022-09-01T02:12:15.627Z,88.65
2022-09-01T02:13:26.630Z,87.79
2022-09-01T02:14:29.919Z,88.07
2022-09-01T02:15:40.347Z,88.25
2022-09-01T02:16:43.419Z,88.27
2022-09-01T02:17:47.390Z,88.68
2022-09-01T02:18:51.509Z,88.23
2022-09-01T02:19:58.278Z,87.98
2022-09-01T02:21:02.113Z,87.62
2022-09-01T02:22:05.261Z,88.52
2022-09-01T02:23:11.846Z,89.13
2022-09-01T02:24:15.894Z,89.29
2022-09-01T02:25:21.039Z,89.69
2022-09-01T02:26:23.913Z,89.52
2022-09-01T02:27:29.887Z,88.54
2022-09-01T02:28:37.644Z,88.94
2022-09-01T02:29:43.588Z,88.68
2022-09-01T02:31:00.196Z,87.64
2022-09-01T02:32:03.354Z,87.83
2022-09-01T02:33:06.215Z,88.58
2022-09-01T02:34:14.213Z,88.65
2022-09-01T02:35:17.200Z,88.74
2022-09-01T02:36:21.074Z,88.19
2022-09-01T02:37:25.616Z,89.32
2022-09-01T02:38:29.962Z,89.08
2022-09-01T02:39:36.736Z,88.67
2022-09-01T02:40:40.858Z,86.69
2022-09-01T02:41:43.883Z,86.66
2022-09-01T02:42:48.262Z,86.74
2022-09-01T02:43:51.337Z,86.76
2022-09-01T02:44:55.782Z,87.23
2022-09-01T02:46:05.687Z,87.40
2022-09-01T02:47:10.173Z,87.57
2022-09-01T02:48:13.314Z,86.81
2022-09-01T02:49:25.145Z,87.09
2022-09-01T02:50:29.400Z,87.53
2022-09-01T02:51:32.222Z,87.74
2022-09-01T02:52:38.345Z,88.21
2022-09-01T02:53:42.990Z,88.10
2022-09-01T02:54:45.828Z,87.57
2022-09-01T02:55:48.733Z,86.70
2022-09-01T02:56:54.674Z,86.53
2022-09-01T02:57:58.552Z,87.30
2022-09-01T02:59:03.582Z,87.21
2022-09-01T03:00:21.010Z,87.10
2022-09-01T03:01:32.923Z,87.15
2022-09-01T03:02:36.150Z,87.34
2022-09-01T03:03:39.208Z,86.45
2022-09-01T03:04:42.132Z,86.17
2022-09-01T03:05:44.967Z,86.33
2022-09-01T03:06:48.041Z,86.88
2022-09-01T03:07:54.334Z,87.34
2022-09-01T03:09:02.063Z,87.78
2022-09-01T03:10:10.121Z,88.29
2022-09-01T03:11:13.519Z,87.71
2022-09-01T03:12:19.649Z,87.46
2022-09-01T03:13:24.114Z,88.28
2022-09-01T03:14:26.939Z,88.09
2022-09-01T03:15:31.146Z,88.14
2022-09-01T03:16:35.261Z,87.84
2022-09-01T03:17:38.002Z,87.54
2022-09-01T03:18:41.057Z,86.49
2022-09-01T03:19:45.669Z,87.27
2022-09-01T03:20:51.262Z,87.36
2022-09-01T03:21:54.007Z,87.42
2022-09-01T03:22:58.488Z,87.79
2022-09-01T03:24:03.957Z,88.23
2022-09-01T03:25:07.260Z,89.18
2022-09-01T03:26:10.426Z,89.85
2022-09-01T03:27:13.257Z,89.84
2022-09-01T03:28:17.040Z,89.68
2022-09-01T03:29:20.685Z,89.19
2022-09-01T03:30:24.142Z,89.52
2022-09-01T03:31:30.819Z,89.79
2022-09-01T03:32:34.181Z,90.38
2022-09-01T03:33:37.521Z,90.61
2022-09-01T03:34:40.511Z,90.81
2022-09-01T03:35:44.262Z,90.21
2022-09-01T03:36:51.620Z,90.11
2022-09-01T03:37:59.319Z,90.80
2022-09-01T03:39:02.482Z,90.72
2022-09-01T03:40:09.257Z,90.54
2022-09-01T03:41:13.598Z,90.82
2022-09-01T03:42:20.279Z,91.10
2022-09-01T03:43:25.203Z,91.35
2022-09-01T03:44:27.918Z,91.03
2022-09-01T03:45:36.208Z,90.46
2022-09-01T03:46:40.862Z,89.87
2022-09-01T03:47:44.010Z,90.02
2022-09-01T03:48:49.348Z,88.79
2022-09-01T03:49:52.684Z,88.42
2022-09-01T03:50:58.992Z,88.51
2022-09-01T03:52:01.742Z,88.51
2022-09-01T03:53:05.530Z,89.43
2022-09-01T03:54:08.754Z,90.00
2022-09-01T03:55:12.208Z,90.30
2022-09-01T03:56:15.493Z,89.88
2022-09-01T03:57:18.277Z,89.43
2022-09-01T03:58:22.109Z,89.68
2022-09-01T03:59:25.783Z,90.04
2022-09-01T04:00:30.447Z,90.28
2022-09-01T04:01:38.323Z,89.58
2022-09-01T04:02:41.334Z,89.71
2022-09-01T04:03:47.440Z,89.45
2022-09-01T04:04:50.263Z,89.77
2022-09-01T04:05:55.663Z,90.06
2022-09-01T04:07:00.526Z,90.77
2022-09-01T04:08:06.314Z,91.24
2022-09-01T04:09:11.252Z,90.80
2022-09-01T04:10:14.184Z,91.01
2022-09-01T04:11:19.357Z,91.13
2022-09-01T04:12:23.101Z,91.52
2022-09-01T04:13:32.326Z,91.93
2022-09-01T04:14:38.845Z,92.17
2022-09-01T04:15:41.622Z,91.39
2022-09-01T04:17:03.796Z,91.40
2022-09-01T04:18:20.682Z,90.70
2022-09-01T04:19:26.651Z,91.00
2022-09-01T04:20:29.830Z,91.80
2022-09-01T04:21:33.643Z,91.99
2022-09-01T04:22:38.483Z,92.29
2022-09-01T04:23:42.803Z,92.42
2022-09-01T04:24:46.713Z,92.71
2022-09-01T04:25:54.394Z,92.38
2022-09-01T04:27:02.499Z,91.86
2022-09-01T04:28:23.145Z,89.95
2022-09-01T04:29:29.878Z,89.79
2022-09-01T04:30:34.125Z,90.07
2022-09-01T04:31:38.926Z,90.68
2022-09-01T04:32:41.949Z,90.72
2022-09-01T04:33:47.209Z,90.93
2022-09-01T04:34:50.321Z,90.44
2022-09-01T04:35:56.697Z,90.88
2022-09-01T04:36:59.520Z,91.51
2022-09-01T04:38:03.023Z,89.68
2022-09-01T04:39:09.335Z,89.70
2022-09-01T04:40:15.173Z,90.44
2022-09-01T04:41:18.155Z,91.27
2022-09-01T04:42:24.465Z,91.32
2022-09-01T04:43:27.342Z,91.54
2022-09-01T04:44:31.027Z,90.70
2022-09-01T04:45:38.325Z,90.39
2022-09-01T04:46:46.811Z,90.64
2022-09-01T04:47:49.675Z,91.11
2022-09-01T04:48:53.977Z,91.52
2022-09-01T04:50:00.710Z,92.06
2022-09-01T04:51:08.966Z,92.46
2022-09-01T04:52:13.372Z,92.86
2022-09-01T04:53:18.943Z,93.02
2022-09-01T04:54:26.639Z,93.11
2022-09-01T04:55:30.658Z,92.24
2022-09-01T04:56:36.644Z,91.25
2022-09-01T04:57:40.240Z,91.75
2022-09-01T04:58:43.025Z,91.90
2022-09-01T04:59:46.003Z,92.41
2022-09-01T05:00:52.671Z,92.70
2022-09-01T05:01:57.710Z,92.42
2022-09-01T05:03:05.052Z,93.11
2022-09-01T05:04:07.896Z,93.85
2022-09-01T05:05:12.827Z,94.27
2022-09-01T05:06:18.344Z,94.15
2022-09-01T05:07:27.602Z,94.19
2022-09-01T05:08:34.893Z,94.66
2022-09-01T05:09:38.537Z,95.15
2022-09-01T05:10:44.421Z,95.21
2022-09-01T05:11:50.359Z,95.19
2022-09-01T05:12:53.453Z,95.32
2022-09-01T05:13:57.977Z,95.38
2022-09-01T05:15:09.485Z,95.36
2022-09-01T05:16:16.024Z,95.41
2022-09-01T05:17:20.620Z,95.39
2022-09-01T05:18:24.844Z,95.38
2022-09-01T05:19:30.273Z,95.24
2022-09-01T05:20:33.060Z,95.30
2022-09-01T05:21:38.909Z,95.25
2022-09-01T05:22:42.288Z,95.27
2022-09-01T05:23:46.612Z,95.36
2022-09-01T05:24:54.938Z,95.49
2022-09-01T05:25:58.507Z,95.47
2022-09-01T05:27:01.365Z,95.66
2022-09-01T05:28:04.170Z,95.85
2022-09-01T05:29:17.386Z,95.91
2022-09-01T05:30:20.158Z,95.99
2022-09-01T05:31:25.060Z,96.22
2022-09-01T05:32:28.877Z,96.02
2022-09-01T05:33:32.274Z,95.88
2022-09-01T05:34:37.748Z,95.96
2022-09-01T05:35:43.791Z,96.28
2022-09-01T05:36:50.767Z,96.62
2022-09-01T05:37:53.706Z,96.82
2022-09-01T05:38:57.288Z,96.85
2022-09-01T05:40:00.033Z,96.62
2022-09-01T05:41:04.728Z,96.44
2022-09-01T05:42:11.267Z,96.40
2022-09-01T05:43:15.112Z,96.34
2022-09-01T05:44:18.761Z,96.29
2022-09-01T05:45:24.035Z,95.86
2022-09-01T05:46:28.467Z,95.00
2022-09-01T05:47:31.447Z,94.93
2022-09-01T05:48:40.228Z,95.24
2022-09-01T05:49:43.729Z,94.44
2022-09-01T05:50:46.991Z,93.21
2022-09-01T05:51:53.339Z,93.35
2022-09-01T05:52:56.313Z,93.38
2022-09-01T05:53:59.451Z,93.33
2022-09-01T05:55:03.051Z,93.47
2022-09-01T05:56:13.736Z,93.48
2022-09-01T05:57:33.811Z,92.80
2022-09-01T06:00:02.397Z,91.81
2022-09-01T06:01:06.017Z,91.03
2022-09-01T06:02:09.567Z,91.91
2022-09-01T06:03:14.686Z,92.98
2022-09-01T06:04:22.537Z,92.48
2022-09-01T06:05:27.411Z,91.30
2022-09-01T06:06:55.099Z,90.97
2022-09-01T06:08:01.190Z,90.82
2022-09-01T06:09:07.893Z,91.04
2022-09-01T06:10:11.323Z,91.60
2022-09-01T06:11:17.870Z,91.96
2022-09-01T06:12:24.183Z,92.13
2022-09-01T06:13:27.758Z,92.74
2022-09-01T06:14:33.100Z,93.07
2022-09-01T06:15:39.637Z,93.14
2022-09-01T06:16:43.850Z,92.99
2022-09-01T06:17:47.357Z,92.11
2022-09-01T06:18:52.914Z,92.11
2022-09-01T06:19:58.020Z,92.26
2022-09-01T06:21:04.598Z,92.33
2022-09-01T06:22:07.612Z,92.50
2022-09-01T06:23:15.695Z,92.31
2022-09-01T06:24:18.589Z,91.62
2022-09-01T06:25:21.783Z,92.18
2022-09-01T06:26:30.083Z,92.19
2022-09-01T06:27:33.916Z,91.85
2022-09-01T06:28:41.326Z,92.22
2022-09-01T06:29:45.695Z,92.74
2022-09-01T06:30:49.384Z,93.30
2022-09-01T06:31:53.001Z,93.92
2022-09-01T06:32:57.316Z,94.06
2022-09-01T06:34:03.456Z,94.22
2022-09-01T06:35:08.740Z,94.47
2022-09-01T06:36:11.758Z,94.29
2022-09-01T06:37:15.799Z,92.76
2022-09-01T06:38:19.674Z,92.24
2022-09-01T06:39:22.591Z,91.82
2022-09-01T06:40:25.649Z,91.97
2022-09-01T06:41:29.467Z,91.43
2022-09-01T06:42:35.464Z,90.56
2022-09-01T06:43:40.349Z,90.86
2022-09-01T06:44:43.404Z,91.17
2022-09-01T06:45:54.873Z,91.93
2022-09-01T06:47:00.303Z,92.85
2022-09-01T06:48:06.864Z,93.45
2022-09-01T06:49:11.783Z,93.36
2022-09-01T06:51:43.651Z,93.06
2022-09-01T06:54:14.845Z,92.85
2022-09-01T06:55:17.704Z,91.21
2022-09-01T06:56:21.559Z,90.37
2022-09-01T06:58:48.546Z,89.88
2022-09-01T06:59:52.587Z,89.84
2022-09-01T07:00:56.279Z,88.31
2022-09-01T07:02:02.533Z,87.67
2022-09-01T07:03:10.021Z,86.94
2022-09-01T07:04:13.370Z,86.98
2022-09-01T07:06:59.683Z,87.63
2022-09-01T07:08:07.519Z,87.30
2022-09-01T07:09:22.204Z,87.70
2022-09-01T07:12:24.808Z,89.85
2022-09-01T07:13:28.451Z,89.85
2022-09-01T07:14:31.457Z,89.42
2022-09-01T07:18:27.206Z,88.56
2022-09-01T07:21:38.786Z,87.43
2022-09-01T07:24:10.625Z,87.74
2022-09-01T07:25:13.538Z,89.02
2022-09-01T07:26:26.901Z,89.60
2022-09-01T07:27:36.111Z,89.19
2022-09-01T07:28:43.574Z,88.43
2022-09-01T07:29:50.705Z,87.80
2022-09-01T07:30:54.842Z,87.96
2022-09-01T07:34:49.218Z,88.07
2022-09-01T07:43:22.739Z,82.23
2022-09-01T07:44:27.043Z,84.58
2022-09-01T07:45:30.473Z,85.93
2022-09-01T07:46:37.078Z,86.27
2022-09-01T07:47:55.871Z,87.20
2022-09-01T07:49:03.304Z,86.90
2022-09-01T07:50:40.355Z,84.54
2022-09-01T07:51:51.493Z,85.42
2022-09-01T07:52:55.067Z,87.13
2022-09-01T07:53:59.220Z,87.93
2022-09-01T07:55:03.238Z,87.84
2022-09-01T07:56:11.740Z,86.77
2022-09-01T07:57:15.581Z,86.78
2022-09-01T07:58:22.282Z,87.20
2022-09-01T07:59:28.336Z,87.69
2022-09-01T08:00:31.805Z,88.13
2022-09-01T08:01:34.855Z,88.18
2022-09-01T08:02:41.791Z,86.96
2022-09-01T08:03:47.700Z,87.63
2022-09-01T08:04:50.545Z,84.05
2022-09-01T08:05:57.927Z,83.68
2022-09-01T08:07:01.972Z,83.44
2022-09-01T08:08:18.618Z,81.59
2022-09-01T08:09:37.012Z,82.48
2022-09-01T08:10:42.195Z,83.20
2022-09-01T08:12:01.757Z,83.54
2022-09-01T08:13:05.357Z,79.35
2022-09-01T08:14:09.823Z,81.54
2022-09-01T08:15:37.955Z,81.44
2022-09-01T08:16:40.076Z,81.86
2022-09-01T08:17:55.073Z,83.28
2022-09-01T08:18:58.958Z,83.56
2022-09-01T08:20:02.161Z,84.62
2022-09-01T08:21:10.253Z,83.72
2022-09-01T08:22:14.450Z,83.19
2022-09-01T08:23:19.665Z,81.52
2022-09-01T08:24:22.569Z,81.73
2022-09-01T08:25:26.434Z,80.44
2022-09-01T08:26:29.319Z,80.67
2022-09-01T08:27:33.981Z,81.88
2022-09-01T08:28:37.049Z,77.53
2022-09-01T08:29:39.914Z,77.34
2022-09-01T08:30:51.253Z,78.28
2022-09-01T08:31:55.958Z,79.64
2022-09-01T08:32:59.661Z,80.00
2022-09-01T08:34:05.732Z,80.69
2022-09-01T08:35:10.904Z,79.92
2022-09-01T08:36:18.900Z,81.09
2022-09-01T08:37:26.046Z,82.32
2022-09-01T08:38:29.159Z,82.68
2022-09-01T08:39:33.074Z,82.72
2022-09-01T08:40:37.289Z,83.90
2022-09-01T08:41:49.255Z,84.38
2022-09-01T08:43:09.953Z,83.29
2022-09-01T08:44:31.186Z,84.18
2022-09-01T08:45:38.879Z,85.17
2022-09-01T08:46:43.248Z,85.76
2022-09-01T08:48:15.419Z,86.18
2022-09-01T08:49:25.622Z,86.58
2022-09-01T08:50:29.374Z,86.34
2022-09-01T08:51:43.129Z,84.87
2022-09-01T08:53:10.167Z,85.27
2022-09-01T08:54:43.394Z,85.49
2022-09-01T08:55:55.289Z,85.63
2022-09-01T08:57:02.536Z,80.86
2022-09-01T08:58:06.954Z,80.22
2022-09-01T08:59:11.341Z,80.68
2022-09-01T09:00:18.427Z,81.43
2022-09-01T09:02:00.805Z,80.37
2022-09-01T09:03:40.518Z,80.87
2022-09-01T09:05:16.545Z,82.29
2022-09-01T09:06:33.896Z,81.91
2022-09-01T09:08:06.589Z,83.44
2022-09-01T09:09:10.704Z,83.50
2022-09-01T09:10:31.245Z,84.54
2022-09-01T09:11:52.874Z,85.16
2022-09-01T09:13:08.890Z,83.57
2022-09-01T09:14:37.937Z,82.08
2022-09-01T09:15:47.772Z,81.09
2022-09-01T09:16:54.645Z,82.32
2022-09-01T09:18:20.020Z,83.20
2022-09-01T09:19:39.908Z,82.15
2022-09-01T09:20:44.890Z,81.25
2022-09-01T09:21:50.335Z,80.65
2022-09-01T09:22:59.827Z,80.04
2022-09-01T09:24:47.647Z,80.94
2022-09-01T09:25:51.146Z,83.20
2022-09-01T09:26:57.575Z,83.46
2022-09-01T09:28:03.704Z,83.39
2022-09-01T09:29:06.712Z,83.28
2022-09-01T09:30:11.669Z,80.87
2022-09-01T09:31:36.585Z,79.11
2022-09-01T09:33:46.661Z,78.31
2022-09-01T09:34:32.905Z,80.00
2022-09-01T09:35:44.352Z,77.57
2022-09-01T09:36:53.898Z,78.75
2022-09-01T09:38:24.337Z,80.42
2022-09-01T09:39:29.488Z,80.78
2022-09-01T09:40:47.874Z,77.93
2022-09-01T09:42:16.328Z,76.62
2022-09-01T09:43:19.613Z,77.15
2022-09-01T09:44:29.696Z,77.40
2022-09-01T09:45:42.195Z,77.48
2022-09-01T09:46:47.995Z,76.52
2022-09-01T09:47:53.209Z,76.78
2022-09-01T09:49:36.442Z,76.86
2022-09-01T09:50:43.897Z,77.95
2022-09-01T09:52:09.944Z,76.64
2022-09-01T09:53:33.046Z,76.11
2022-09-01T09:54:39.163Z,76.89
2022-09-01T09:56:00.460Z,77.40
2022-09-01T09:57:08.775Z,75.78
2022-09-01T09:58:12.897Z,76.52
2022-09-01T09:59:56.661Z,78.05
2022-09-01T10:01:24.561Z,78.76
2022-09-01T10:02:32.136Z,79.99
2022-09-01T10:03:46.353Z,79.47
2022-09-01T10:04:52.633Z,80.46
2022-09-01T10:05:58.524Z,81.32
2022-09-01T10:07:01.469Z,81.58
2022-09-01T10:08:07.277Z,80.31
2022-09-01T10:09:36.649Z,78.85
2022-09-01T10:10:42.443Z,73.75
2022-09-01T10:11:57.831Z,73.89
2022-09-01T10:13:02.169Z,71.88
2022-09-01T10:14:51.674Z,73.42
2022-09-01T10:15:55.272Z,72.28
2022-09-01T10:17:06.449Z,72.42
2022-09-01T10:18:28.734Z,70.16
2022-09-01T10:19:35.886Z,68.63
2022-09-01T10:20:39.942Z,70.12
2022-09-01T10:21:45.407Z,65.94
2022-09-01T10:22:50.747Z,68.67
2022-09-01T10:23:54.297Z,65.68
2022-09-01T10:24:57.606Z,67.73
2022-09-01T10:26:32.042Z,66.60
2022-09-01T10:27:39.242Z,64.38
2022-09-01T10:29:06.482Z,67.08
2022-09-01T10:30:19.573Z,70.30
2022-09-01T10:31:29.127Z,66.63
2022-09-01T10:33:07.461Z,64.89
2022-09-01T10:34:19.839Z,66.89
2022-09-01T10:35:28.043Z,64.69
2022-09-01T10:36:32.053Z,61.98
2022-09-01T10:37:35.251Z,63.79
2022-09-01T10:38:39.221Z,60.67
2022-09-01T10:40:20.549Z,60.32
2022-09-01T10:41:43.722Z,62.18
2022-09-01T10:42:54.204Z,60.52
2022-09-01T10:44:10.978Z,61.22
2022-09-01T10:45:31.312Z,60.63
2022-09-01T10:46:39.293Z,61.12
2022-09-01T10:47:44.125Z,57.28
2022-09-01T10:48:55.712Z,58.91
2022-09-01T10:50:19.358Z,62.04
2022-09-01T10:51:28.136Z,61.75
2022-09-01T10:52:41.252Z,57.58
2022-09-01T10:53:49.030Z,60.12
2022-09-01T10:54:59.052Z,59.71
2022-09-01T10:56:28.620Z,59.35
2022-09-01T10:59:44.238Z,56.75
2022-09-01T11:02:28.185Z,58.22
2022-09-01T11:03:32.767Z,58.51
2022-09-01T11:04:40.041Z,55.18
2022-09-01T11:06:13.164Z,55.35
2022-09-01T11:07:50.308Z,52.47
2022-09-01T11:08:51.018Z,54.26
2022-09-01T11:11:52.162Z,49.54
2022-09-01T11:13:25.118Z,49.89
2022-09-01T11:14:29.534Z,51.39
2022-09-01T11:15:41.034Z,50.18
2022-09-01T11:16:47.809Z,51.68
2022-09-01T11:17:51.806Z,49.74
2022-09-01T11:18:57.511Z,52.21
2022-09-01T11:20:06.510Z,50.22
2022-09-01T11:21:31.380Z,48.94
2022-09-01T11:22:45.379Z,48.66
2022-09-01T11:23:52.758Z,47.80
2022-09-01T11:25:38.824Z,50.76
2022-09-01T11:26:49.853Z,50.15
2022-09-01T11:27:52.743Z,47.78
2022-09-01T11:28:56.937Z,45.58
2022-09-01T11:30:07.313Z,46.17
2022-09-01T11:31:10.210Z,47.32
2022-09-01T11:32:13.341Z,47.62
2022-09-01T11:33:39.377Z,45.11
2022-09-01T11:34:46.181Z,46.13
2022-09-01T11:36:02.749Z,47.68
2022-09-01T11:37:15.438Z,48.70
2022-09-01T11:38:19.918Z,50.13
2022-09-01T11:39:31.361Z,46.34
2022-09-01T11:40:36.131Z,45.94
2022-09-01T11:42:08.295Z,46.52
2022-09-01T11:43:16.909Z,45.78
2022-09-01T11:44:27.080Z,46.29
2022-09-01T11:45:34.618Z,45.94
2022-09-01T11:46:39.265Z,46.24
2022-09-01T11:47:50.573Z,45.01
2022-09-01T11:48:54.690Z,43.65
2022-09-01T11:50:05.292Z,44.14
2022-09-01T11:51:08.294Z,45.24
2022-09-01T11:52:20.388Z,43.47
2022-09-01T11:53:24.875Z,44.03
2022-09-01T11:54:30.472Z,43.54
2022-09-01T11:55:43.074Z,45.03
2022-09-01T11:56:46.448Z,45.81
2022-09-01T11:57:49.179Z,45.53
2022-09-01T11:58:52.408Z,47.79
2022-09-01T11:59:56.520Z,43.98
2022-09-01T12:01:18.659Z,44.49
2022-09-01T12:02:32.186Z,42.24
2022-09-01T12:03:37.217Z,42.62
2022-09-01T12:04:41.343Z,41.87
2022-09-01T12:05:45.091Z,42.77
2022-09-01T12:07:00.960Z,42.80
2022-09-01T12:08:14.240Z,40.97
2022-09-01T12:09:17.228Z,42.47
2022-09-01T12:10:36.584Z,42.12
2022-09-01T12:11:42.035Z,42.18
2022-09-01T12:12:45.128Z,40.58
2022-09-01T12:14:01.747Z,40.90
2022-09-01T12:15:25.023Z,43.07
2022-09-01T12:16:30.454Z,42.29
2022-09-01T12:17:34.366Z,43.29
2022-09-01T12:18:54.162Z,42.40
2022-09-01T12:19:57.006Z,42.07
2022-09-01T12:21:02.342Z,41.89
2022-09-01T12:22:16.822Z,40.71
2022-09-01T12:23:31.612Z,42.24
2022-09-01T12:24:37.404Z,40.87
2022-09-01T12:25:40.282Z,41.90
2022-09-01T12:26:44.396Z,42.82
2022-09-01T12:27:47.393Z,41.34
2022-09-01T12:28:51.223Z,40.99
2022-09-01T12:29:54.292Z,41.29
2022-09-01T12:30:58.793Z,41.19
2022-09-01T12:32:02.275Z,40.75
2022-09-01T12:33:24.254Z,40.97
2022-09-01T12:34:39.494Z,39.89
2022-09-01T12:35:42.438Z,40.07
2022-09-01T12:37:05.311Z,39.41
2022-09-01T12:38:20.329Z,39.82
2022-09-01T12:39:25.130Z,40.03
2022-09-01T12:40:36.230Z,39.68
2022-09-01T12:41:40.191Z,40.87
2022-09-01T12:42:51.232Z,40.74
2022-09-01T12:43:54.895Z,40.00
2022-09-01T12:45:09.029Z,39.17
2022-09-01T12:46:12.699Z,39.61
2022-09-01T12:47:48.116Z,40.36
2022-09-01T12:48:51.261Z,39.96
2022-09-01T12:49:55.739Z,41.95
2022-09-01T12:51:02.676Z,43.53
2022-09-01T12:52:26.256Z,43.05
2022-09-01T12:53:36.745Z,39.27
2022-09-01T12:54:40.510Z,39.26
2022-09-01T12:56:03.409Z,40.65
2022-09-01T12:57:06.985Z,40.94
2022-09-01T12:58:11.516Z,41.14
2022-09-01T12:59:32.018Z,39.02
2022-09-01T13:01:10.156Z,39.30
2022-09-01T13:02:42.235Z,40.09
2022-09-01T13:04:10.593Z,39.46
2022-09-01T13:05:42.221Z,39.66
2022-09-01T13:06:45.528Z,40.67
2022-09-01T13:07:48.621Z,42.71
2022-09-01T13:08:51.816Z,42.09
2022-09-01T13:09:55.994Z,42.25
2022-09-01T13:11:07.229Z,42.86
2022-09-01T13:12:19.476Z,41.23
2022-09-01T13:13:24.570Z,40.34
2022-09-01T13:14:28.925Z,39.82
2022-09-01T13:15:32.307Z,38.29
2022-09-01T13:16:37.426Z,39.75
2022-09-01T13:17:40.460Z,40.53
2022-09-01T13:20:08.061Z,40.16
2022-09-01T13:21:12.535Z,41.92
2022-09-01T13:22:18.821Z,41.43
2022-09-01T13:23:22.442Z,38.30
2022-09-01T13:24:29.318Z,39.38
2022-09-01T13:25:34.967Z,39.62
2022-09-01T13:26:37.831Z,38.51
2022-09-01T13:27:44.514Z,38.73
2022-09-01T13:28:47.578Z,39.23
2022-09-01T13:29:50.879Z,38.60
2022-09-01T13:32:24.090Z,40.77
2022-09-01T13:33:28.283Z,42.05
2022-09-01T13:34:31.837Z,41.40
2022-09-01T13:35:34.912Z,39.40
2022-09-01T13:36:49.298Z,40.31
2022-09-01T13:37:55.309Z,39.13
2022-09-01T13:38:58.093Z,39.67
2022-09-01T13:40:01.855Z,38.70
2022-09-01T13:41:04.961Z,38.38
2022-09-01T13:42:08.137Z,39.23
2022-09-01T13:43:12.070Z,39.58
2022-09-01T13:44:17.211Z,39.42
2022-09-01T13:45:25.195Z,39.89
2022-09-01T13:46:31.837Z,41.21
2022-09-01T13:47:35.446Z,40.86
2022-09-01T13:49:41.697Z,40.92
2022-09-01T13:50:27.350Z,38.54
2022-09-01T13:51:52.183Z,40.15
2022-09-01T13:52:56.790Z,38.72
2022-09-01T13:53:59.676Z,39.04
2022-09-01T13:55:02.494Z,38.22
2022-09-01T13:56:07.767Z,37.37
2022-09-01T13:57:11.982Z,36.60
2022-09-01T13:58:15.440Z,37.62
2022-09-01T13:59:18.819Z,37.98
2022-09-01T14:00:25.959Z,38.23
2022-09-01T14:01:29.457Z,38.43
2022-09-01T14:02:35.378Z,38.72
2022-09-01T14:03:38.307Z,37.68
2022-09-01T14:04:41.207Z,37.92
2022-09-01T14:05:49.773Z,38.82
2022-09-01T14:06:54.227Z,39.70
2022-09-01T14:07:57.468Z,38.54
2022-09-01T14:09:00.442Z,38.57
2022-09-01T14:10:04.395Z,37.69
2022-09-01T14:11:08.097Z,37.53
2022-09-01T14:12:11.544Z,38.79
2022-09-01T14:13:17.172Z,39.07
2022-09-01T14:14:20.100Z,39.75
2022-09-01T14:15:27.167Z,37.80
2022-09-01T14:16:30.574Z,37.17
2022-09-01T14:17:35.815Z,38.70
2022-09-01T14:18:38.912Z,39.28
2022-09-01T14:19:43.066Z,38.57
2022-09-01T14:20:50.922Z,38.10
2022-09-01T14:21:57.336Z,38.45
2022-09-01T14:23:00.201Z,38.11
2022-09-01T14:24:03.193Z,39.20
2022-09-01T14:25:08.387Z,39.09
2022-09-01T14:26:14.334Z,38.18
2022-09-01T14:27:17.211Z,38.76
2022-09-01T14:28:23.320Z,39.87
2022-09-01T14:29:26.233Z,37.11
2022-09-01T14:30:31.870Z,37.71
2022-09-01T14:31:36.451Z,37.89
2022-09-01T14:32:39.948Z,37.79
2022-09-01T14:33:43.469Z,38.55
2022-09-01T14:34:46.427Z,39.28
2022-09-01T14:35:50.308Z,39.42
2022-09-01T14:36:58.045Z,39.38
2022-09-01T14:38:02.051Z,38.71
2022-09-01T14:39:05.817Z,38.12
2022-09-01T14:40:10.311Z,37.32
2022-09-01T14:41:24.073Z,37.39
2022-09-01T14:42:29.629Z,37.60
2022-09-01T14:43:33.303Z,36.80
2022-09-01T14:44:39.327Z,36.93
2022-09-01T14:45:48.685Z,37.92
2022-09-01T14:46:53.151Z,36.63
2022-09-01T14:48:00.930Z,37.44
2022-09-01T14:49:04.812Z,35.34
2022-09-01T14:51:25.991Z,36.26
2022-09-01T14:52:28.765Z,37.36
2022-09-01T14:53:32.187Z,37.53
2022-09-01T14:54:36.720Z,37.14
2022-09-01T14:55:43.644Z,36.96
2022-09-01T14:58:11.506Z,35.42
2022-09-01T14:59:14.870Z,35.51
2022-09-01T15:00:18.757Z,35.62
2022-09-01T15:01:34.309Z,36.60
2022-09-01T15:02:39.171Z,37.01
2022-09-01T15:03:46.321Z,37.33
2022-09-01T15:04:49.513Z,37.34
2022-09-01T15:05:55.759Z,37.52
2022-09-01T15:06:58.652Z,38.92
2022-09-01T15:08:01.409Z,37.02
2022-09-01T15:09:04.284Z,36.87
2022-09-01T15:10:09.812Z,37.96